Ferry Katsuragi — JI3611 — position and weather

sailwx.info

Track history (hours):
 
Tides and Currents Weather Stations Pressure Air Temp Water Temp Dewpoint Dewpoint Depression Visibility Wind Speed Wind Dir Waves Ship Positions

Ferry Katsuragi

Last reported at 2014-Oct-23 14:33 UTC. Time now 2014-Oct-23 15:09 UTC.
Position N 34°11' E 135°02'.

Length 108 m; draft 4 m.

Type: Passenger vessel. MMSI: 431301245.

Date/timePositionNaut miles runAvg speedWind from/ knotsBaromVisibWave heightAir tempDewpointWater temp
2014-Oct-23 14:33N 34°11' E 135°02'2 0.6
2014-Oct-23 10:33N 34°12' E 135°04'4 3.8
2014-Oct-23 09:33N 34°13' E 135°09'11 2.8
2014-Oct-23 05:32N 34°08' E 134°56'1111.7
2014-Oct-23 04:33N 34°13' E 135°09'9 7.9
2014-Oct-23 03:24N 34°09' E 134°58'3 0.9
2014-Oct-23 00:19N 34°10' E 134°55'1114.9
2014-Oct-22 23:34N 34°13' E 135°08'2 1.6
2014-Oct-22 22:33N 34°13' E 135°06'21 6.5
2014-Oct-22 19:19N 34°04' E 134°43'1214.3
2014-Oct-22 18:28N 34°09' E 134°56'1112.1
2014-Oct-22 17:33N 34°13' E 135°09'0 0.0
2014-Oct-22 16:33N 34°13' E 135°09'0 0.0
2014-Oct-22 15:33N 34°13' E 135°09'6 6.0
2014-Oct-22 14:33N 34°11' E 135°02'11 3.5
2014-Oct-22 11:27N 34°08' E 134°49'1314.6
2014-Oct-22 10:33N 34°12' E 135°04'4 4.0
2014-Oct-22 09:33N 34°13' E 135°09'21 6.0
2014-Oct-22 06:08N 34°05' E 134°45'1014.4
2014-Oct-22 05:26N 34°09' E 134°57'1012.0
2014-Oct-22 04:34N 34°13' E 135°09'6 6.4
2014-Oct-22 03:33N 34°11' E 135°01'8 2.6
2014-Oct-22 00:30N 34°08' E 134°52'1414.8
2014-Oct-21 23:34N 34°13' E 135°08'2 1.6
2014-Oct-21 22:33N 34°13' E 135°06'18 5.3
2014-Oct-21 19:11N 34°06' E 134°46'913.4
2014-Oct-21 18:32N 34°09' E 134°56'1111.5
2014-Oct-21 17:33N 34°13' E 135°09'0 0.0
2014-Oct-21 16:33N 34°13' E 135°09'0 0.0
2014-Oct-21 15:34N 34°13' E 135°09'6 6.3
2014-Oct-21 14:33N 34°12' E 135°01'10 3.4
2014-Oct-21 11:33N 34°08' E 134°50'1212.5
2014-Oct-21 10:33N 34°12' E 135°04'4 4.0
2014-Oct-21 09:33N 34°13' E 135°09'10 2.5
2014-Oct-21 05:26N 34°10' E 134°57'1011.5
2014-Oct-21 04:33N 34°13' E 135°09'9 7.6
2014-Oct-21 03:21N 34°10' E 134°58'2 0.7
2014-Oct-21 00:17N 34°09' E 134°56'1114.7
2014-Oct-20 23:34N 34°13' E 135°08'1 1.4
2014-Oct-20 22:33N 34°13' E 135°06'19 5.7
2014-Oct-20 19:13N 34°05' E 134°45'1013.9
2014-Oct-20 18:30N 34°08' E 134°57'1111.8
2014-Oct-20 17:34N 34°13' E 135°09'0 0.0
2014-Oct-20 16:33N 34°13' E 135°09'0 0.0
2014-Oct-20 15:34N 34°13' E 135°09'6 5.9
2014-Oct-20 14:33N 34°11' E 135°02'2 0.4
2014-Oct-20 10:33N 34°12' E 135°04'4 4.2
2014-Oct-20 09:33N 34°13' E 135°09'9 2.2
2014-Oct-20 05:21N 34°11' E 134°58'911.7
2014-Oct-20 04:34N 34°13' E 135°09'7 7.0
2014-Oct-20 03:33N 34°11' E 135°00'3 0.9
2014-Oct-20 00:14N 34°11' E 134°57'914.0
2014-Oct-19 23:34N 34°13' E 135°08'2 1.8
2014-Oct-19 22:34N 34°13' E 135°06'18 5.2
2014-Oct-19 19:10N 34°06' E 134°46'813.4
2014-Oct-19 18:33N 34°09' E 134°55'1211.7
2014-Oct-19 17:33N 34°13' E 135°09'0 0.0
2014-Oct-19 16:33N 34°13' E 135°09'0 0.0
2014-Oct-19 15:33N 34°13' E 135°09'7 6.5
2014-Oct-19 14:33N 34°11' E 135°01'5 1.4
2014-Oct-19 11:05N 34°09' E 134°56'714.4
2014-Oct-19 10:34N 34°12' E 135°04'4 4.0
2014-Oct-19 09:33N 34°13' E 135°09'12 3.0
2014-Oct-19 05:33N 34°10' E 134°54'1212.1
2014-Oct-19 04:33N 34°13' E 135°09'6 6.5
2014-Oct-19 03:33N 34°11' E 135°01'3 0.9
2014-Oct-19 00:09N 34°10' E 134°58'915.2
2014-Oct-18 23:34N 34°13' E 135°08'2 1.5
2014-Oct-18 22:34N 34°13' E 135°06'18 5.3
2014-Oct-18 19:07N 34°06' E 134°46'814.2
2014-Oct-18 18:33N 34°09' E 134°54'1212.4
2014-Oct-18 17:33N 34°13' E 135°09'0 0.0
2014-Oct-18 16:33N 34°13' E 135°09'0 0.0
2014-Oct-18 15:33N 34°13' E 135°09'6 5.7
2014-Oct-18 14:33N 34°11' E 135°02'12 4.0
2014-Oct-18 11:30N 34°07' E 134°48'1414.9
2014-Oct-18 10:33N 34°12' E 135°04'4 4.0
2014-Oct-18 09:33N 34°13' E 135°09'20 5.9
2014-Oct-18 06:07N 34°06' E 134°46'914.2
2014-Oct-18 05:31N 34°09' E 134°56'1112.0
2014-Oct-18 04:33N 34°13' E 135°09'6 6.4
2014-Oct-18 03:33N 34°12' E 135°01'18 7.6
2014-Oct-18 01:07N 34°05' E 134°40'915.3
2014-Oct-18 00:32N 34°08' E 134°50'1515.8
2014-Oct-17 23:34N 34°13' E 135°08'2 2.0
2014-Oct-17 22:33N 34°13' E 135°06'23 7.5
2014-Oct-17 19:31N 34°04' E 134°40'1413.9
2014-Oct-17 18:32N 34°09' E 134°55'1212.0
2014-Oct-17 17:33N 34°13' E 135°09'0 0.0
2014-Oct-17 16:33N 34°13' E 135°09'0 0.0
2014-Oct-17 15:33N 34°13' E 135°09'6 6.3
2014-Oct-17 14:33N 34°11' E 135°01'11 3.4
2014-Oct-17 11:24N 34°07' E 134°49'1214.0
2014-Oct-17 10:33N 34°11' E 135°03'5 5.1
2014-Oct-17 09:33N 34°13' E 135°08'20 5.7
2014-Oct-17 06:05N 34°06' E 134°46'1115.1
2014-Oct-17 05:23N 34°10' E 134°58'911.4
2014-Oct-17 04:33N 34°13' E 135°09'7 6.8
2014-Oct-17 03:33N 34°11' E 135°01'5 1.5
2014-Oct-17 00:22N 34°08' E 134°56'1214.3
2014-Oct-16 23:33N 34°13' E 135°09'2 2.2
2014-Oct-16 22:34N 34°13' E 135°06'20 5.9
2014-Oct-16 19:15N 34°06' E 134°44'1014.0
2014-Oct-16 18:33N 34°09' E 134°55'1212.1
2014-Oct-16 17:33N 34°13' E 135°09'0 0.0
2014-Oct-16 16:33N 34°13' E 135°09'0 0.0
2014-Oct-16 15:33N 34°13' E 135°09'6 5.7
2014-Oct-16 14:34N 34°11' E 135°02'13 4.1
2014-Oct-16 11:29N 34°06' E 134°48'1414.2
2014-Oct-16 10:31N 34°12' E 135°03'4 4.5
2014-Oct-16 09:33N 34°13' E 135°08'20 5.9
2014-Oct-16 06:08N 34°06' E 134°45'1114.2
2014-Oct-16 05:21N 34°10' E 134°58'911.7
2014-Oct-16 04:33N 34°13' E 135°09'6 6.1
2014-Oct-16 03:33N 34°11' E 135°01'6 1.8
2014-Oct-16 00:20N 34°09' E 134°55'1215.1
2014-Oct-15 23:33N 34°13' E 135°08'1 1.1
2014-Oct-15 22:34N 34°13' E 135°07'19 5.7
2014-Oct-15 19:10N 34°05' E 134°45'1014.5
2014-Oct-15 18:29N 34°09' E 134°56'1112.0
2014-Oct-15 17:33N 34°13' E 135°09'0 0.0
2014-Oct-15 16:33N 34°13' E 135°09'0 0.0
2014-Oct-15 15:34N 34°13' E 135°09'5 5.0
2014-Oct-15 14:34N 34°12' E 135°03'13 4.2
2014-Oct-15 11:26N 34°07' E 134°48'1314.7
2014-Oct-15 10:33N 34°11' E 135°03'5 4.7
2014-Oct-15 09:33N 34°13' E 135°08'12 2.9
2014-Oct-15 05:32N 34°09' E 134°55'1212.3
2014-Oct-15 04:33N 34°13' E 135°09'6 6.2
2014-Oct-15 03:34N 34°11' E 135°02'5 1.4
2014-Oct-15 00:15N 34°10' E 134°56'1115.3
2014-Oct-14 23:33N 34°13' E 135°08'2 2.4
2014-Oct-14 22:34N 34°13' E 135°05'20 6.2
2014-Oct-14 19:17N 34°05' E 134°43'1214.3
2014-Oct-14 18:26N 34°09' E 134°57'1112.1
2014-Oct-14 17:33N 34°13' E 135°09'0 0.0
2014-Oct-14 16:34N 34°13' E 135°09'0 0.0
2014-Oct-14 15:34N 34°13' E 135°09'6 5.8
2014-Oct-14 14:33N 34°10' E 135°02'13 4.4
2014-Oct-14 11:33N 34°07' E 134°47'1414.0
2014-Oct-14 10:34N 34°11' E 135°03'5 4.7
2014-Oct-14 09:33N 34°13' E 135°08'19 5.6
2014-Oct-14 06:05N 34°06' E 134°46'1114.0
2014-Oct-14 05:18N 34°10' E 134°59'911.6
2014-Oct-14 04:33N 34°13' E 135°09'6 5.7
2014-Oct-14 03:33N 34°11' E 135°02'14 4.6
2014-Oct-14 00:26N 34°06' E 134°46'1314.3
2014-Oct-13 23:32N 34°14' E 134°58'1313.5
2014-Oct-13 22:33N 34°25' E 135°07'10 9.3
2014-Oct-13 21:31N 34°27' E 135°18'0 0.0
2014-Oct-13 20:31N 34°27' E 135°18'0 0.0
2014-Oct-13 18:07N 34°27' E 135°18'0 0.0
2014-Oct-13 17:07N 34°27' E 135°18'0 0.0
2014-Oct-13 16:31N 34°27' E 135°18'0 0.1
2014-Oct-13 15:31N 34°27' E 135°18'  
Track history (hours):
 
Tides and Currents Weather Stations Pressure Air Temp Water Temp Dewpoint Dewpoint Depression Visibility Wind Speed Wind Dir Waves Ship Positions

Ferry Katsuragi

Last reported at 2014-Oct-23 14:33 UTC. Time now 2014-Oct-23 15:09 UTC.
Position N 34°11' E 135°02'.

Length 108 m; draft 4 m.

Type: Passenger vessel. MMSI: 431301245.

Date/timePositionNaut miles runAvg speedWind from/ knotsBaromVisibWave heightAir tempDewpointWater temp
2014-Oct-23 14:33N 34°11' E 135°02'2 0.6
2014-Oct-23 10:33N 34°12' E 135°04'4 3.8
2014-Oct-23 09:33N 34°13' E 135°09'11 2.8
2014-Oct-23 05:32N 34°08' E 134°56'1111.7
2014-Oct-23 04:33N 34°13' E 135°09'9 7.9
2014-Oct-23 03:24N 34°09' E 134°58'3 0.9
2014-Oct-23 00:19N 34°10' E 134°55'1114.9
2014-Oct-22 23:34N 34°13' E 135°08'2 1.6
2014-Oct-22 22:33N 34°13' E 135°06'21 6.5
2014-Oct-22 19:19N 34°04' E 134°43'1214.3
2014-Oct-22 18:28N 34°09' E 134°56'1112.1
2014-Oct-22 17:33N 34°13' E 135°09'0 0.0
2014-Oct-22 16:33N 34°13' E 135°09'0 0.0
2014-Oct-22 15:33N 34°13' E 135°09'6 6.0
2014-Oct-22 14:33N 34°11' E 135°02'11 3.5
2014-Oct-22 11:27N 34°08' E 134°49'1314.6
2014-Oct-22 10:33N 34°12' E 135°04'4 4.0
2014-Oct-22 09:33N 34°13' E 135°09'21 6.0
2014-Oct-22 06:08N 34°05' E 134°45'1014.4
2014-Oct-22 05:26N 34°09' E 134°57'1012.0
2014-Oct-22 04:34N 34°13' E 135°09'6 6.4
2014-Oct-22 03:33N 34°11' E 135°01'8 2.6
2014-Oct-22 00:30N 34°08' E 134°52'1414.8
2014-Oct-21 23:34N 34°13' E 135°08'2 1.6
2014-Oct-21 22:33N 34°13' E 135°06'18 5.3
2014-Oct-21 19:11N 34°06' E 134°46'913.4
2014-Oct-21 18:32N 34°09' E 134°56'1111.5
2014-Oct-21 17:33N 34°13' E 135°09'0 0.0
2014-Oct-21 16:33N 34°13' E 135°09'0 0.0
2014-Oct-21 15:34N 34°13' E 135°09'6 6.3
2014-Oct-21 14:33N 34°12' E 135°01'10 3.4
2014-Oct-21 11:33N 34°08' E 134°50'1212.5
2014-Oct-21 10:33N 34°12' E 135°04'4 4.0
2014-Oct-21 09:33N 34°13' E 135°09'10 2.5
2014-Oct-21 05:26N 34°10' E 134°57'1011.5
2014-Oct-21 04:33N 34°13' E 135°09'9 7.6
2014-Oct-21 03:21N 34°10' E 134°58'2 0.7
2014-Oct-21 00:17N 34°09' E 134°56'1114.7
2014-Oct-20 23:34N 34°13' E 135°08'1 1.4
2014-Oct-20 22:33N 34°13' E 135°06'19 5.7
2014-Oct-20 19:13N 34°05' E 134°45'1013.9
2014-Oct-20 18:30N 34°08' E 134°57'1111.8
2014-Oct-20 17:34N 34°13' E 135°09'0 0.0
2014-Oct-20 16:33N 34°13' E 135°09'0 0.0
2014-Oct-20 15:34N 34°13' E 135°09'6 5.9
2014-Oct-20 14:33N 34°11' E 135°02'2 0.4
2014-Oct-20 10:33N 34°12' E 135°04'4 4.2
2014-Oct-20 09:33N 34°13' E 135°09'9 2.2
2014-Oct-20 05:21N 34°11' E 134°58'911.7
2014-Oct-20 04:34N 34°13' E 135°09'7 7.0
2014-Oct-20 03:33N 34°11' E 135°00'3 0.9
2014-Oct-20 00:14N 34°11' E 134°57'914.0
2014-Oct-19 23:34N 34°13' E 135°08'2 1.8
2014-Oct-19 22:34N 34°13' E 135°06'18 5.2
2014-Oct-19 19:10N 34°06' E 134°46'813.4
2014-Oct-19 18:33N 34°09' E 134°55'1211.7
2014-Oct-19 17:33N 34°13' E 135°09'0 0.0
2014-Oct-19 16:33N 34°13' E 135°09'0 0.0
2014-Oct-19 15:33N 34°13' E 135°09'7 6.5
2014-Oct-19 14:33N 34°11' E 135°01'5 1.4
2014-Oct-19 11:05N 34°09' E 134°56'714.4
2014-Oct-19 10:34N 34°12' E 135°04'4 4.0
2014-Oct-19 09:33N 34°13' E 135°09'12 3.0
2014-Oct-19 05:33N 34°10' E 134°54'1212.1
2014-Oct-19 04:33N 34°13' E 135°09'6 6.5
2014-Oct-19 03:33N 34°11' E 135°01'3 0.9
2014-Oct-19 00:09N 34°10' E 134°58'915.2
2014-Oct-18 23:34N 34°13' E 135°08'2 1.5
2014-Oct-18 22:34N 34°13' E 135°06'18 5.3
2014-Oct-18 19:07N 34°06' E 134°46'814.2
2014-Oct-18 18:33N 34°09' E 134°54'1212.4
2014-Oct-18 17:33N 34°13' E 135°09'0 0.0
2014-Oct-18 16:33N 34°13' E 135°09'0 0.0
2014-Oct-18 15:33N 34°13' E 135°09'6 5.7
2014-Oct-18 14:33N 34°11' E 135°02'12 4.0
2014-Oct-18 11:30N 34°07' E 134°48'1414.9
2014-Oct-18 10:33N 34°12' E 135°04'4 4.0
2014-Oct-18 09:33N 34°13' E 135°09'20 5.9
2014-Oct-18 06:07N 34°06' E 134°46'914.2
2014-Oct-18 05:31N 34°09' E 134°56'1112.0
2014-Oct-18 04:33N 34°13' E 135°09'6 6.4
2014-Oct-18 03:33N 34°12' E 135°01'18 7.6
2014-Oct-18 01:07N 34°05' E 134°40'915.3
2014-Oct-18 00:32N 34°08' E 134°50'1515.8
2014-Oct-17 23:34N 34°13' E 135°08'2 2.0
2014-Oct-17 22:33N 34°13' E 135°06'23 7.5
2014-Oct-17 19:31N 34°04' E 134°40'1413.9
2014-Oct-17 18:32N 34°09' E 134°55'1212.0
2014-Oct-17 17:33N 34°13' E 135°09'0 0.0
2014-Oct-17 16:33N 34°13' E 135°09'0 0.0
2014-Oct-17 15:33N 34°13' E 135°09'6 6.3
2014-Oct-17 14:33N 34°11' E 135°01'11 3.4
2014-Oct-17 11:24N 34°07' E 134°49'1214.0
2014-Oct-17 10:33N 34°11' E 135°03'5 5.1
2014-Oct-17 09:33N 34°13' E 135°08'20 5.7
2014-Oct-17 06:05N 34°06' E 134°46'1115.1
2014-Oct-17 05:23N 34°10' E 134°58'911.4
2014-Oct-17 04:33N 34°13' E 135°09'7 6.8
2014-Oct-17 03:33N 34°11' E 135°01'5 1.5
2014-Oct-17 00:22N 34°08' E 134°56'1214.3
2014-Oct-16 23:33N 34°13' E 135°09'2 2.2
2014-Oct-16 22:34N 34°13' E 135°06'20 5.9
2014-Oct-16 19:15N 34°06' E 134°44'1014.0
2014-Oct-16 18:33N 34°09' E 134°55'1212.1
2014-Oct-16 17:33N 34°13' E 135°09'0 0.0
2014-Oct-16 16:33N 34°13' E 135°09'0 0.0
2014-Oct-16 15:33N 34°13' E 135°09'6 5.7
2014-Oct-16 14:34N 34°11' E 135°02'13 4.1
2014-Oct-16 11:29N 34°06' E 134°48'1414.2
2014-Oct-16 10:31N 34°12' E 135°03'4 4.5
2014-Oct-16 09:33N 34°13' E 135°08'20 5.9
2014-Oct-16 06:08N 34°06' E 134°45'1114.2
2014-Oct-16 05:21N 34°10' E 134°58'911.7
2014-Oct-16 04:33N 34°13' E 135°09'6 6.1
2014-Oct-16 03:33N 34°11' E 135°01'6 1.8
2014-Oct-16 00:20N 34°09' E 134°55'1215.1
2014-Oct-15 23:33N 34°13' E 135°08'1 1.1
2014-Oct-15 22:34N 34°13' E 135°07'19 5.7
2014-Oct-15 19:10N 34°05' E 134°45'1014.5
2014-Oct-15 18:29N 34°09' E 134°56'1112.0
2014-Oct-15 17:33N 34°13' E 135°09'0 0.0
2014-Oct-15 16:33N 34°13' E 135°09'0 0.0
2014-Oct-15 15:34N 34°13' E 135°09'5 5.0
2014-Oct-15 14:34N 34°12' E 135°03'13 4.2
2014-Oct-15 11:26N 34°07' E 134°48'1314.7
2014-Oct-15 10:33N 34°11' E 135°03'5 4.7
2014-Oct-15 09:33N 34°13' E 135°08'12 2.9
2014-Oct-15 05:32N 34°09' E 134°55'1212.3
2014-Oct-15 04:33N 34°13' E 135°09'6 6.2
2014-Oct-15 03:34N 34°11' E 135°02'5 1.4
2014-Oct-15 00:15N 34°10' E 134°56'1115.3
2014-Oct-14 23:33N 34°13' E 135°08'2 2.4
2014-Oct-14 22:34N 34°13' E 135°05'20 6.2
2014-Oct-14 19:17N 34°05' E 134°43'1214.3
2014-Oct-14 18:26N 34°09' E 134°57'1112.1
2014-Oct-14 17:33N 34°13' E 135°09'0 0.0
2014-Oct-14 16:34N 34°13' E 135°09'0 0.0
2014-Oct-14 15:34N 34°13' E 135°09'6 5.8
2014-Oct-14 14:33N 34°10' E 135°02'13 4.4
2014-Oct-14 11:33N 34°07' E 134°47'1414.0
2014-Oct-14 10:34N 34°11' E 135°03'5 4.7
2014-Oct-14 09:33N 34°13' E 135°08'19 5.6
2014-Oct-14 06:05N 34°06' E 134°46'1114.0
2014-Oct-14 05:18N 34°10' E 134°59'911.6
2014-Oct-14 04:33N 34°13' E 135°09'6 5.7
2014-Oct-14 03:33N 34°11' E 135°02'14 4.6
2014-Oct-14 00:26N 34°06' E 134°46'1314.3
2014-Oct-13 23:32N 34°14' E 134°58'1313.5
2014-Oct-13 22:33N 34°25' E 135°07'10 9.3
2014-Oct-13 21:31N 34°27' E 135°18'0 0.0
2014-Oct-13 20:31N 34°27' E 135°18'0 0.0
2014-Oct-13 18:07N 34°27' E 135°18'0 0.0
2014-Oct-13 17:07N 34°27' E 135°18'0 0.0
2014-Oct-13 16:31N 34°27' E 135°18'0 0.1
2014-Oct-13 15:31N 34°27' E 135°18'  

Dump ship's entire track history